• Join FlightAware (Why Join?)
  • Login
  • US Flag 
06:35AM EDT


 

Airport Tracker/Info


-or-


 

Live Flight TrackerFlight Track Log ✈ UAL495 ✈ 08-May-2013 ✈ KDEN - KIAD

Flight Track Log - Related Links

Times and Time Zones

All times are in EDT time to prevent confusion due to time zone crossing. See the UAL495 flight status page for this flight to view local times or setup timezone preferences in your user account.

Time Position Orientation Groundspeed Altitude Reporting Facility
EDT Latitude Longitude Course Direction KTS MPH feet Rate Location/Type
12:42PM 39.8833 -104.5667 85° East 213 245 7,200  Level Denver TRACON
12:43PM 39.8833 -104.4833 90° East 250 288 9,500 2,160 Climbing Denver TRACON
12:44PM 39.8747 -104.4328 102° East 249 287 10,500 2,280 Climbing Denver Center
12:45PM 39.8719 -104.3217 92° East 280 322 13,100 2,280 Climbing Denver Center
12:46PM 39.8725 -104.2161 90° East 291 335 15,300 2,160 Climbing Denver Center
12:47PM 39.8833 -103.7236 90° East  Level FlightAware Approximate
12:47PM 39.8714 -104.0892 91° East 323 372 17,600  Level Denver Center
12:48PM 39.8918 -103.5661 85° East  Level FlightAware Approximate
12:48PM 39.8736 -103.9644 89° East 348 400 19,400  Level Denver Center
12:49PM 39.8758 -103.8264 89° East 355 409 21,600 1,860 Climbing Denver Center
12:50PM 39.8883 -103.6894 83° East 357 411 23,300 1,560 Climbing Denver Center
12:51PM 39.9042 -103.5589 81° East 376 433 24,900 1,620 Climbing Denver Center
12:52PM 39.9197 -103.4122 82° East 384 442 26,700 1,260 Climbing Denver Center
12:53PM 39.9356 -103.2769 81° East 393 452 27,600 660 Climbing Denver Center
12:54PM 39.9536 -103.1064 82° East 426 490 28,100 600 Climbing Denver Center
12:55PM 39.9708 -102.9539 82° East 442 509 28,900 960 Climbing Denver Center
12:56PM 39.9903 -102.7714 82° East 455 524 30,100 1,200 Climbing Denver Center
12:57PM 40.0083 -102.6139 81° East 460 529 31,500 1,320 Climbing Denver Center
12:58PM 40.0272 -102.4322 82° East 455 524 32,900 1,080 Climbing Denver Center
12:59PM 40.0444 -102.2783 82° East 449 517 33,800 780 Climbing Denver Center
01:00PM 40.0631 -102.0939 82° East 458 527 34,600 540 Climbing Denver Center
01:01PM 40.0786 -101.9358 83° East 459 528 35,000 180 Climbing Denver Center
01:02PM 40.0967 -101.7486 83° East 464 534 35,000  Level Denver Center
01:03PM 40.1122 -101.5858 83° East 472 543 35,000  Level Denver Center
01:04PM 40.1281 -101.4236 83° East 471 542 35,000  Level Denver Center
01:05PM 40.1453 -101.2339 83° East 473 544 35,000  Level Denver Center
01:06PM 40.1600 -101.0725 83° East 471 542 35,000  Level Denver Center
01:07PM 40.1778 -100.8839 83° East 471 542 35,000  Level Denver Center
01:09PM 40.1928 -100.7222 83° East 471 542 35,000  Level Denver Center
01:10PM 40.2061 -100.5331 85° East 471 542 35,000  Level Denver Center
01:11PM 40.2075 -100.3711 89° East 468 539 35,000  Level Denver Center
01:12PM 40.2106 -100.1806 89° East 472 543 35,000  Level Denver Center
01:13PM 40.2128 -100.0186 89° East 469 540 35,000  Level Denver Center
01:14PM 40.2150 -99.8256 89° East 474 545 35,000  Level Denver Center
01:15PM 40.2169 -99.6533 89° East 475 547 35,000  Level Denver Center
01:16PM 40.2183 -99.4806 89° East 476 548 35,000  Level Denver Center
01:17PM 40.2206 -99.3047 89° East 482 555 35,000  Level Denver Center
01:18PM 40.2211 -99.0936 90° East 486 559 35,000  Level Denver Center
01:19PM 40.2225 -98.9164 89° East 489 563 35,000  Level Denver Center
01:20PM 40.2225 -98.7589 90° East 486 559 35,000  Level Minneapolis Center
01:21PM 40.2231 -98.5806 90° East 488 562 35,000  Level Minneapolis Center
01:22PM 40.2225 -98.4025 90° East 490 564 35,000  Level Minneapolis Center
01:23PM 40.2219 -98.2250 90° East 490 564 35,000  Level Minneapolis Center
01:24PM 40.2225 -98.0481 90° East 490 564 35,000  Level Minneapolis Center
01:25PM 40.2208 -97.8706 91° East 489 563 35,000  Level Minneapolis Center
01:26PM 40.2200 -97.6600 90° East 487 560 35,000  Level Minneapolis Center
01:27PM 40.2183 -97.4825 91° East 487 560 35,000  Level Minneapolis Center
01:28PM 40.2175 -97.3069 90° East 486 559 35,000  Level Minneapolis Center
01:29PM 40.2153 -97.1306 91° East 487 560 35,000  Level Minneapolis Center
01:30PM 40.2119 -96.9544 91° East 487 560 35,000  Level Minneapolis Center
01:31PM 40.2083 -96.7750 91° East 490 564 35,000  Level Minneapolis Center
01:32PM 40.2056 -96.5642 91° East 487 560 35,000  Level Minneapolis Center
01:33PM 40.2031 -96.3889 91° East 485 558 35,000  Level Minneapolis Center
01:34PM 40.2003 -96.2125 91° East 487 560 35,000  Level Minneapolis Center
01:35PM 40.1992 -96.0364 90° East 487 560 35,000  Level Minneapolis Center
01:36PM 40.2000 -95.8586 90° East 490 564 35,000  Level Minneapolis Center
01:37PM 40.1989 -95.6803 90° East 491 565 35,000  Level Minneapolis Center
01:38PM 40.1967 -95.4667 91° East 491 565 35,000  Level Minneapolis Center
01:39PM 40.1956 -95.2892 90° East 490 564 35,000  Level Minneapolis Center
01:40PM 40.1928 -95.1111 91° East 491 565 35,000  Level Minneapolis Center
01:41PM 40.1906 -94.9319 91° East 493 567 35,000  Level Minneapolis Center
01:42PM 40.1872 -94.7544 91° East 492 566 35,000  Level Minneapolis Center
01:44PM 40.1836 -94.5381 91° East 493 567 35,000  Level Minneapolis Center
01:45PM 40.1800 -94.3614 91° East 502 578 35,000  Level Kansas City Center
01:46PM 40.1769 -94.1889 91° East 499 574 35,000  Level Kansas City Center
01:47PM 40.1706 -93.9914 92° East 505 581 35,000  Level Kansas City Center
01:48PM 40.1667 -93.8117 92° East 504 580 35,000  Level Kansas City Center
01:49PM 40.1578 -93.6333 94° East 498 573 35,000  Level Kansas City Center
01:50PM 40.1417 -93.4167 95° East 502 578 35,000  Level Kansas City Center
01:51PM 40.1297 -93.2375 95° East 502 578 35,000  Level Kansas City Center
01:52PM 40.1183 -93.0581 95° East 502 578 35,000  Level Kansas City Center
01:53PM 40.1050 -92.8525 95° East 501 577 35,000  Level Kansas City Center
01:54PM 40.0928 -92.6786 95° East 501 577 35,000  Level Kansas City Center
01:55PM 40.0803 -92.5044 95° East 501 577 35,000  Level Kansas City Center
01:56PM 40.0669 -92.3128 95° East 503 579 35,000  Level Kansas City Center
01:57PM 40.0542 -92.1344 95° East 504 580 35,000  Level Kansas City Center
01:58PM 40.0361 -91.9197 96° East 502 578 35,000  Level Kansas City Center
01:59PM 40.0222 -91.7400 96° East 503 579 35,000  Level Kansas City Center
02:00PM 40.0067 -91.5600 96° East 504 580 35,000  Level Kansas City Center
02:01PM 39.9925 -91.3789 96° East 506 582 35,000  Level Kansas City Center
02:02PM 39.9786 -91.1981 96° East 506 582 35,000  Level Kansas City Center
02:03PM 39.9592 -90.9828 97° East 504 580 35,000  Level Kansas City Center
02:04PM 39.9453 -90.8206 96° East 503 579 35,000  Level Kansas City Center
02:05PM 39.9306 -90.6414 96° East 501 577 35,000  Level Kansas City Center
02:06PM 39.9103 -90.4294 97° East 496 571 35,000  Level Kansas City Center
02:07PM 39.8944 -90.2533 97° East 493 567 35,000  Level Kansas City Center
02:08PM 39.8781 -90.0783 97° East 491 565 35,000  Level Kansas City Center
02:09PM 39.8611 -89.9050 97° East 489 563 35,000  Level Kansas City Center
02:10PM 39.8444 -89.7328 97° East 487 560 35,000  Level Kansas City Center
02:11PM 39.8403 -89.5217 91° East 488 562 35,000  Level Kansas City Center
02:12PM 39.8406 -89.3458 90° East 487 560 35,000  Level Kansas City Center
02:13PM 39.8422 -89.1711 89° East 486 559 35,000  Level Kansas City Center
02:15PM 39.8414 -88.9956 90° East 486 559 35,000  Level Kansas City Center
02:16PM 39.8419 -88.8211 90° East 485 558 35,000  Level Kansas City Center
02:17PM 39.8408 -88.6464 90° East 486 559 35,000  Level Kansas City Center
02:18PM 39.8422 -88.4381 89° East 483 556 35,000  Level Kansas City Center
02:19PM 39.8422 -88.2639 90° East 482 555 35,000  Level Kansas City Center
02:20PM 39.8392 -88.0844 91° East 479 551 35,000  Level Kansas City Center
02:21PM 39.8386 -87.9250 90° East 475 547 35,000  Level Indianapolis Center
02:22PM 39.8364 -87.7542 91° East 474 545 35,000  Level Indianapolis Center
02:23PM 39.8369 -87.5856 90° East 469 540 35,000  Level Indianapolis Center
02:24PM 39.8500 -87.4194 84° East 465 535 35,000  Level Indianapolis Center
02:25PM 39.8583 -87.2536 86° East 461 531 35,000  Level Indianapolis Center
02:26PM 39.8650 -87.0900 87° East 456 525 35,000  Level Indianapolis Center
02:27PM 39.8728 -86.9250 86° East 458 527 35,000  Level Indianapolis Center
02:28PM 39.8825 -86.7261 86° East 459 528 35,000  Level Indianapolis Center
02:29PM 39.8894 -86.5594 87° East 459 528 35,000  Level Indianapolis Center
02:30PM 39.8964 -86.3908 87° East 461 531 35,000  Level Indianapolis Center
02:31PM 39.9044 -86.2214 86° East 460 529 35,000  Level Indianapolis Center
02:32PM 39.9111 -86.0544 87° East 458 527 35,000  Level Indianapolis Center
02:33PM 39.9186 -85.8886 87° East 456 525 35,000  Level Indianapolis Center
02:34PM 39.9256 -85.7247 87° East 454 522 35,000  Level Indianapolis Center
02:35PM 39.9317 -85.5592 87° East 457 526 35,000  Level Indianapolis Center
02:36PM 39.9386 -85.3656 87° East 449 517 35,000  Level Indianapolis Center
02:37PM 39.9456 -85.2039 87° East 448 516 35,000  Level Indianapolis Center
02:38PM 39.9633 -85.0444 82° East 447 514 35,000  Level Indianapolis Center
02:39PM 40.0483 -84.9322 45° Northeast 435 501 35,000  Level Indianapolis Center
02:40PM 40.1756 -84.8950 13° North 428 493 35,000  Level Indianapolis Center
02:41PM 40.2647 -84.7942 41° Northeast 435 501 35,000  Level Indianapolis Center
02:42PM 40.2639 -84.6275 90° East 450 518 35,000  Level Indianapolis Center
02:43PM 40.2556 -84.4611 94° East 454 522 35,000  Level Indianapolis Center
02:44PM 40.2647 -84.2978 86° East 451 519 35,000  Level Indianapolis Center
02:45PM 40.3153 -84.1500 66° East 442 509 35,000  Level Indianapolis Center
02:46PM 40.3658 -84.0022 66° East 440 506 35,000  Level Indianapolis Center
02:47PM 40.3886 -83.8169 81° East 452 520 35,000  Level Indianapolis Center
02:48PM 40.3700 -83.6494 98° East 458 527 35,000  Level Indianapolis Center
02:49PM 40.3508 -83.4825 99° East 457 526 35,000  Level Indianapolis Center
02:51PM 40.3314 -83.3167 99° East 454 522 35,000  Level Indianapolis Center
02:52PM 40.3128 -83.1522 98° East 451 519 35,000  Level Indianapolis Center
02:53PM 40.2936 -82.9881 99° East 450 518 35,000  Level Indianapolis Center
02:54PM 40.2722 -82.8253 100° East 448 516 35,000  Level Indianapolis Center
02:55PM 40.2503 -82.6428 99° East 456 525 35,000  Level Indianapolis Center
02:56PM 40.2325 -82.4947 99° East 455 524 35,000  Level Indianapolis Center
02:57PM 40.2114 -82.3300 99° East 454 522 35,000  Level Indianapolis Center
02:58PM 40.1669 -82.1447 107° East 454 522 35,000  Level Indianapolis Center
02:59PM 40.1253 -81.9844 109° East 458 527 35,000 -60 Level Indianapolis Center
03:00PM 40.0831 -81.8194 108° East 471 542 34,900  Descending Indianapolis Center
03:01PM 40.0364 -81.6428 109° East 477 549 35,000  Climbing Indianapolis Center
03:02PM 39.9939 -81.4769 108° East 478 550 35,000  Level Indianapolis Center
03:03PM 39.9536 -81.3231 109° East 472 543 35,000  Level Indianapolis Center
03:04PM 39.9108 -81.1594 109° East 474 545 35,000  Level Indianapolis Center
03:04PM 39.8911 -81.0728 106° East 467 537 35,000  Level Cleveland Center
03:05PM 39.8478 -80.9131 109° East 467 537 35,000  Level Cleveland Center
03:06PM 39.8064 -80.7586 109° East 467 537 35,000  Level Cleveland Center
03:07PM 39.7650 -80.6047 109° East 467 537 35,000  Level Cleveland Center
03:08PM 39.7211 -80.4456 110° East 462 532 35,000 -300 Level Cleveland Center
03:09PM 39.6792 -80.2944 110° East 457 526 34,500 -540 Descending Cleveland Center
03:10PM 39.6369 -80.1436 110° East 452 520 34,000 -300 Descending Cleveland Center
03:11PM 39.5967 -79.9903 109° East 452 520 34,000 -120 Level Cleveland Center
03:12PM 39.5775 -79.9264 111° Southeast 452 520 33,900 -1,620 Descending Washington Center
03:13PM 39.5433 -79.7683 106° East 457 526 31,900 -2,340 Descending Washington Center
03:14PM 39.5133 -79.6131 104° East 452 520 29,300 -2,340 Descending Washington Center
03:15PM 39.4869 -79.4611 103° East 440 506 27,200 -2,220 Descending Washington Center
03:16PM 39.4622 -79.3172 103° East 430 495 25,000 -2,580 Descending Washington Center
03:17PM 39.4606 -79.1719 91° East 402 463 22,200 -2,520 Descending Washington Center
03:18PM 39.4667 -79.0272 87° East 397 457 19,900 -2,220 Descending Washington Center
03:19PM 39.4706 -78.8931 88° East 384 442 17,800 -2,040 Descending Washington Center
03:20PM 39.4575 -78.7606 97° East 379 436 16,000 -1,320 Descending Washington Center
03:21PM 39.4378 -78.6308 101° East 369 425 15,200 -960 Descending Washington Center
03:22PM 39.4219 -78.5144 100° East 356 410 14,100 -1,380 Descending Washington Center
03:23PM 39.4039 -78.3956 101° East 336 387 12,500 -1,740 Descending Washington Center
03:24PM 39.3794 -78.2872 106° East 325 374 10,700 -1,260 Descending Washington Center
03:25PM 39.3075 -78.2311 149° Southeast 284 327 10,000 -900 Descending Washington Center
03:26PM 39.2375 -78.1936 157° South 278 320 8,900 -1,200 Descending Washington Center
03:27PM 39.1806 -78.1353 142° Southeast 273 314 7,600 -1,260 Descending Washington Center
03:28PM 39.2072 -78.0478 69° East 216 249 6,400 -1,260 Descending Washington Center
03:29PM 39.2339 -77.9683 67° East 229 264 5,200 -720 Descending Washington Center
03:30PM 39.2442 -77.8722 82° East 251 289 5,000 -120 Descending Washington Center
03:31PM 39.2583 -77.7817 79° East 258 297 5,000 -240 Level Washington Center
03:33PM 39.2333 -77.5500 98° East 261 300 4,300 -300 Descending Potomac TRACON
03:34PM 39.2000 -77.4833 123° Southeast 264 304 4,000 -420 Descending Potomac TRACON
03:35PM 39.1333 -77.4500 159° South 241 277 3,500 -540 Descending Potomac TRACON